sensor_id;sensor_type;location;lat;lon;timestamp;pressure;altitude;pressure_sealevel;temperature
68012;BMP180;54794;48.348;7.878;2022-08-04T00:00:10;98794.00;;;27.70
68012;BMP180;54794;48.348;7.878;2022-08-04T00:03:24;98791.00;;;27.60
68012;BMP180;54794;48.348;7.878;2022-08-04T00:06:03;98791.00;;;27.60
68012;BMP180;54794;48.348;7.878;2022-08-04T00:08:48;98784.00;;;27.60
68012;BMP180;54794;48.348;7.878;2022-08-04T00:11:25;98784.00;;;27.50
68012;BMP180;54794;48.348;7.878;2022-08-04T00:14:13;98776.00;;;27.50
68012;BMP180;54794;48.348;7.878;2022-08-04T00:16:42;98778.00;;;27.50
68012;BMP180;54794;48.348;7.878;2022-08-04T00:19:39;98791.00;;;27.50
68012;BMP180;54794;48.348;7.878;2022-08-04T00:22:09;98779.00;;;27.50
68012;BMP180;54794;48.348;7.878;2022-08-04T00:24:38;98796.00;;;27.50
68012;BMP180;54794;48.348;7.878;2022-08-04T00:27:07;98788.00;;;27.40
68012;BMP180;54794;48.348;7.878;2022-08-04T00:29:37;98782.00;;;27.40
68012;BMP180;54794;48.348;7.878;2022-08-04T00:32:07;98798.00;;;27.30
68012;BMP180;54794;48.348;7.878;2022-08-04T00:34:35;98800.00;;;27.30
68012;BMP180;54794;48.348;7.878;2022-08-04T00:37:05;98801.00;;;27.30
68012;BMP180;54794;48.348;7.878;2022-08-04T00:39:54;98798.00;;;27.20
68012;BMP180;54794;48.348;7.878;2022-08-04T00:42:47;98801.00;;;27.10
68012;BMP180;54794;48.348;7.878;2022-08-04T00:51:55;98804.00;;;26.90
68012;BMP180;54794;48.348;7.878;2022-08-04T00:55:04;98802.00;;;26.90
68012;BMP180;54794;48.348;7.878;2022-08-04T01:01:05;98807.00;;;26.80
68012;BMP180;54794;48.348;7.878;2022-08-04T01:04:03;98800.00;;;26.70
68012;BMP180;54794;48.348;7.878;2022-08-04T01:10:03;98803.00;;;26.70
68012;BMP180;54794;48.348;7.878;2022-08-04T01:16:07;98808.00;;;26.60
68012;BMP180;54794;48.348;7.878;2022-08-04T01:18:59;98806.00;;;26.60
68012;BMP180;54794;48.348;7.878;2022-08-04T01:27:10;98802.00;;;26.40
68012;BMP180;54794;48.348;7.878;2022-08-04T01:29:50;98817.00;;;26.40
68012;BMP180;54794;48.348;7.878;2022-08-04T01:32:33;98803.00;;;26.40
68012;BMP180;54794;48.348;7.878;2022-08-04T01:35:12;98807.00;;;26.40
68012;BMP180;54794;48.348;7.878;2022-08-04T01:38:28;98799.00;;;26.40
68012;BMP180;54794;48.348;7.878;2022-08-04T01:41:01;98804.00;;;26.40
68012;BMP180;54794;48.348;7.878;2022-08-04T01:43:32;98795.00;;;26.40
68012;BMP180;54794;48.348;7.878;2022-08-04T01:46:02;98796.00;;;26.40
68012;BMP180;54794;48.348;7.878;2022-08-04T01:48:30;98807.00;;;26.40
68012;BMP180;54794;48.348;7.878;2022-08-04T01:51:05;98794.00;;;26.40
68012;BMP180;54794;48.348;7.878;2022-08-04T01:53:36;98799.00;;;26.40
68012;BMP180;54794;48.348;7.878;2022-08-04T01:56:07;98798.00;;;26.40
68012;BMP180;54794;48.348;7.878;2022-08-04T01:58:36;98795.00;;;26.40
68012;BMP180;54794;48.348;7.878;2022-08-04T02:01:07;98793.00;;;26.40
68012;BMP180;54794;48.348;7.878;2022-08-04T02:03:43;98793.00;;;26.40
68012;BMP180;54794;48.348;7.878;2022-08-04T02:09:38;98805.00;;;26.40
68012;BMP180;54794;48.348;7.878;2022-08-04T02:21:19;98805.00;;;26.40
68012;BMP180;54794;48.348;7.878;2022-08-04T02:23:53;98808.00;;;26.40
68012;BMP180;54794;48.348;7.878;2022-08-04T02:26:27;98805.00;;;26.40
68012;BMP180;54794;48.348;7.878;2022-08-04T02:31:55;98796.00;;;26.30
68012;BMP180;54794;48.348;7.878;2022-08-04T02:34:38;98795.00;;;26.30
68012;BMP180;54794;48.348;7.878;2022-08-04T02:37:08;98782.00;;;26.20
68012;BMP180;54794;48.348;7.878;2022-08-04T02:39:42;98792.00;;;26.20
68012;BMP180;54794;48.348;7.878;2022-08-04T02:42:16;98784.00;;;26.10
68012;BMP180;54794;48.348;7.878;2022-08-04T02:44:50;98791.00;;;26.10
68012;BMP180;54794;48.348;7.878;2022-08-04T02:47:25;98785.00;;;26.10
68012;BMP180;54794;48.348;7.878;2022-08-04T02:50:14;98785.00;;;26.00
68012;BMP180;54794;48.348;7.878;2022-08-04T02:52:58;98779.00;;;26.00
68012;BMP180;54794;48.348;7.878;2022-08-04T02:55:28;98784.00;;;26.00
68012;BMP180;54794;48.348;7.878;2022-08-04T02:57:58;98788.00;;;25.90
68012;BMP180;54794;48.348;7.878;2022-08-04T03:00:28;98780.00;;;25.90
68012;BMP180;54794;48.348;7.878;2022-08-04T03:11:34;98784.00;;;25.70
68012;BMP180;54794;48.348;7.878;2022-08-04T03:14:39;98791.00;;;25.70
68012;BMP180;54794;48.348;7.878;2022-08-04T03:20:40;98773.00;;;25.70
68012;BMP180;54794;48.348;7.878;2022-08-04T03:24:17;98771.00;;;25.60
68012;BMP180;54794;48.348;7.878;2022-08-04T03:31:05;98778.00;;;25.50
68012;BMP180;54794;48.348;7.878;2022-08-04T03:33:41;98785.00;;;25.40
68012;BMP180;54794;48.348;7.878;2022-08-04T03:45:00;98780.00;;;25.30
68012;BMP180;54794;48.348;7.878;2022-08-04T04:00:17;98782.00;;;25.10
68012;BMP180;54794;48.348;7.878;2022-08-04T04:20:47;98800.00;;;25.00
68012;BMP180;54794;48.348;7.878;2022-08-04T04:23:47;98797.00;;;25.00
68012;BMP180;54794;48.348;7.878;2022-08-04T04:26:53;98796.00;;;25.00
68012;BMP180;54794;48.348;7.878;2022-08-04T04:30:07;98803.00;;;25.00
68012;BMP180;54794;48.348;7.878;2022-08-04T04:36:46;98788.00;;;25.10
68012;BMP180;54794;48.348;7.878;2022-08-04T04:39:54;98791.00;;;25.10
68012;BMP180;54794;48.348;7.878;2022-08-04T04:46:12;98804.00;;;25.10
68012;BMP180;54794;48.348;7.878;2022-08-04T04:48:49;98806.00;;;25.10
68012;BMP180;54794;48.348;7.878;2022-08-04T04:51:30;98800.00;;;25.10
68012;BMP180;54794;48.348;7.878;2022-08-04T04:57:14;98797.00;;;25.10
68012;BMP180;54794;48.348;7.878;2022-08-04T05:00:09;98812.00;;;25.10
68012;BMP180;54794;48.348;7.878;2022-08-04T05:03:04;98815.00;;;25.10
68012;BMP180;54794;48.348;7.878;2022-08-04T05:06:06;98816.00;;;25.10
68012;BMP180;54794;48.348;7.878;2022-08-04T05:09:02;98821.00;;;25.10
68012;BMP180;54794;48.348;7.878;2022-08-04T05:12:19;98812.00;;;25.10
68012;BMP180;54794;48.348;7.878;2022-08-04T05:15:11;98796.00;;;25.10
68012;BMP180;54794;48.348;7.878;2022-08-04T05:17:41;98795.00;;;25.10
68012;BMP180;54794;48.348;7.878;2022-08-04T05:20:21;98810.00;;;25.20
68012;BMP180;54794;48.348;7.878;2022-08-04T05:23:17;98826.00;;;25.20
68012;BMP180;54794;48.348;7.878;2022-08-04T05:25:53;98815.00;;;25.20
68012;BMP180;54794;48.348;7.878;2022-08-04T05:28:38;98819.00;;;25.20
68012;BMP180;54794;48.348;7.878;2022-08-04T05:31:17;98825.00;;;25.30
68012;BMP180;54794;48.348;7.878;2022-08-04T05:36:46;98826.00;;;25.30
68012;BMP180;54794;48.348;7.878;2022-08-04T05:39:25;98823.00;;;25.40
68012;BMP180;54794;48.348;7.878;2022-08-04T05:42:01;98817.00;;;25.40
68012;BMP180;54794;48.348;7.878;2022-08-04T05:44:32;98812.00;;;25.40
68012;BMP180;54794;48.348;7.878;2022-08-04T05:47:02;98831.00;;;25.50
68012;BMP180;54794;48.348;7.878;2022-08-04T05:49:31;98834.00;;;25.50
68012;BMP180;54794;48.348;7.878;2022-08-04T05:52:01;98827.00;;;25.60
68012;BMP180;54794;48.348;7.878;2022-08-04T05:54:34;98836.00;;;25.60
68012;BMP180;54794;48.348;7.878;2022-08-04T05:57:06;98838.00;;;25.70
68012;BMP180;54794;48.348;7.878;2022-08-04T05:59:38;98844.00;;;25.70
68012;BMP180;54794;48.348;7.878;2022-08-04T06:02:08;98837.00;;;25.80
68012;BMP180;54794;48.348;7.878;2022-08-04T06:04:41;98837.00;;;25.80
68012;BMP180;54794;48.348;7.878;2022-08-04T06:07:08;98848.00;;;25.90
68012;BMP180;54794;48.348;7.878;2022-08-04T06:09:42;98832.00;;;26.00
68012;BMP180;54794;48.348;7.878;2022-08-04T06:12:25;98838.00;;;26.00
68012;BMP180;54794;48.348;7.878;2022-08-04T06:14:58;98849.00;;;26.10
68012;BMP180;54794;48.348;7.878;2022-08-04T06:17:34;98844.00;;;26.10
68012;BMP180;54794;48.348;7.878;2022-08-04T06:20:29;98852.00;;;26.20
68012;BMP180;54794;48.348;7.878;2022-08-04T06:23:06;98852.00;;;26.30
68012;BMP180;54794;48.348;7.878;2022-08-04T06:25:43;98855.00;;;26.40
68012;BMP180;54794;48.348;7.878;2022-08-04T06:28:14;98848.00;;;26.50
68012;BMP180;54794;48.348;7.878;2022-08-04T06:30:42;98842.00;;;26.60
68012;BMP180;54794;48.348;7.878;2022-08-04T06:33:17;98849.00;;;26.70
68012;BMP180;54794;48.348;7.878;2022-08-04T06:36:19;98846.00;;;26.80
68012;BMP180;54794;48.348;7.878;2022-08-04T06:38:47;98850.00;;;26.80
68012;BMP180;54794;48.348;7.878;2022-08-04T06:41:25;98852.00;;;26.90
68012;BMP180;54794;48.348;7.878;2022-08-04T06:43:53;98851.00;;;27.00
68012;BMP180;54794;48.348;7.878;2022-08-04T06:46:21;98860.00;;;27.20
68012;BMP180;54794;48.348;7.878;2022-08-04T06:48:50;98839.00;;;27.30
68012;BMP180;54794;48.348;7.878;2022-08-04T06:51:18;98853.00;;;27.40
68012;BMP180;54794;48.348;7.878;2022-08-04T06:54:01;98849.00;;;27.50
68012;BMP180;54794;48.348;7.878;2022-08-04T06:56:30;98827.00;;;27.50
68012;BMP180;54794;48.348;7.878;2022-08-04T06:59:01;98846.00;;;27.70
68012;BMP180;54794;48.348;7.878;2022-08-04T07:01:29;98846.00;;;27.90
68012;BMP180;54794;48.348;7.878;2022-08-04T07:03:58;98849.00;;;28.00
68012;BMP180;54794;48.348;7.878;2022-08-04T07:06:25;98839.00;;;28.10
68012;BMP180;54794;48.348;7.878;2022-08-04T07:08:53;98848.00;;;28.20
68012;BMP180;54794;48.348;7.878;2022-08-04T07:11:22;98847.00;;;28.40
68012;BMP180;54794;48.348;7.878;2022-08-04T07:13:51;98835.00;;;28.50
68012;BMP180;54794;48.348;7.878;2022-08-04T07:16:20;98844.00;;;28.70
68012;BMP180;54794;48.348;7.878;2022-08-04T07:18:57;98837.00;;;28.80
68012;BMP180;54794;48.348;7.878;2022-08-04T07:21:37;98853.00;;;29.00
68012;BMP180;54794;48.348;7.878;2022-08-04T07:24:05;98840.00;;;29.10
68012;BMP180;54794;48.348;7.878;2022-08-04T07:26:32;98841.00;;;29.30
68012;BMP180;54794;48.348;7.878;2022-08-04T07:29:00;98842.00;;;29.40
68012;BMP180;54794;48.348;7.878;2022-08-04T07:31:28;98854.00;;;29.60
68012;BMP180;54794;48.348;7.878;2022-08-04T07:34:02;98839.00;;;29.70
68012;BMP180;54794;48.348;7.878;2022-08-04T07:36:53;98846.00;;;29.80
68012;BMP180;54794;48.348;7.878;2022-08-04T07:39:26;98848.00;;;30.00
68012;BMP180;54794;48.348;7.878;2022-08-04T07:41:59;98847.00;;;30.10
68012;BMP180;54794;48.348;7.878;2022-08-04T07:44:29;98846.00;;;30.20
68012;BMP180;54794;48.348;7.878;2022-08-04T07:46:57;98854.00;;;30.40
68012;BMP180;54794;48.348;7.878;2022-08-04T07:49:25;98853.00;;;30.60
68012;BMP180;54794;48.348;7.878;2022-08-04T07:52:13;98851.00;;;30.70
68012;BMP180;54794;48.348;7.878;2022-08-04T07:54:41;98843.00;;;30.90
68012;BMP180;54794;48.348;7.878;2022-08-04T07:57:08;98853.00;;;31.00
68012;BMP180;54794;48.348;7.878;2022-08-04T07:59:46;98851.00;;;31.20
68012;BMP180;54794;48.348;7.878;2022-08-04T08:02:19;98845.00;;;31.30
68012;BMP180;54794;48.348;7.878;2022-08-04T08:04:48;98858.00;;;31.50
68012;BMP180;54794;48.348;7.878;2022-08-04T08:07:18;98843.00;;;31.60
68012;BMP180;54794;48.348;7.878;2022-08-04T08:09:45;98843.00;;;31.70
68012;BMP180;54794;48.348;7.878;2022-08-04T08:12:13;98851.00;;;31.90
68012;BMP180;54794;48.348;7.878;2022-08-04T08:15:00;98848.00;;;32.00
68012;BMP180;54794;48.348;7.878;2022-08-04T08:17:28;98853.00;;;32.10
68012;BMP180;54794;48.348;7.878;2022-08-04T08:19:54;98855.00;;;32.20
68012;BMP180;54794;48.348;7.878;2022-08-04T08:22:21;98858.00;;;32.30
68012;BMP180;54794;48.348;7.878;2022-08-04T08:24:48;98857.00;;;32.50
68012;BMP180;54794;48.348;7.878;2022-08-04T08:27:15;98850.00;;;32.50
68012;BMP180;54794;48.348;7.878;2022-08-04T08:29:43;98853.00;;;32.70
68012;BMP180;54794;48.348;7.878;2022-08-04T08:32:11;98852.00;;;32.80
68012;BMP180;54794;48.348;7.878;2022-08-04T08:34:42;98850.00;;;32.90
68012;BMP180;54794;48.348;7.878;2022-08-04T08:37:40;98852.00;;;33.10
68012;BMP180;54794;48.348;7.878;2022-08-04T08:43:27;98858.00;;;33.40
68012;BMP180;54794;48.348;7.878;2022-08-04T08:52:51;98858.00;;;33.90
68012;BMP180;54794;48.348;7.878;2022-08-04T08:59:21;98858.00;;;34.30
68012;BMP180;54794;48.348;7.878;2022-08-04T09:10:49;98857.00;;;34.90
68012;BMP180;54794;48.348;7.878;2022-08-04T09:13:33;98847.00;;;35.10
68012;BMP180;54794;48.348;7.878;2022-08-04T09:19:33;98857.00;;;35.30
68012;BMP180;54794;48.348;7.878;2022-08-04T09:25:31;98854.00;;;35.60
68012;BMP180;54794;48.348;7.878;2022-08-04T09:28:18;98847.00;;;35.80
68012;BMP180;54794;48.348;7.878;2022-08-04T09:31:15;98857.00;;;36.00
68012;BMP180;54794;48.348;7.878;2022-08-04T09:34:14;98854.00;;;36.10
68012;BMP180;54794;48.348;7.878;2022-08-04T09:37:03;98859.00;;;36.30
68012;BMP180;54794;48.348;7.878;2022-08-04T09:40:06;98854.00;;;36.40
68012;BMP180;54794;48.348;7.878;2022-08-04T09:45:54;98852.00;;;36.70
68012;BMP180;54794;48.348;7.878;2022-08-04T09:48:43;98859.00;;;36.80
68012;BMP180;54794;48.348;7.878;2022-08-04T09:51:49;98855.00;;;36.90
68012;BMP180;54794;48.348;7.878;2022-08-04T10:00:14;98853.00;;;37.40
68012;BMP180;54794;48.348;7.878;2022-08-04T10:02:53;98856.00;;;37.60
68012;BMP180;54794;48.348;7.878;2022-08-04T10:09:07;98846.00;;;37.80
68012;BMP180;54794;48.348;7.878;2022-08-04T10:14:49;98846.00;;;38.10
68012;BMP180;54794;48.348;7.878;2022-08-04T10:27:01;98828.00;;;38.50
68012;BMP180;54794;48.348;7.878;2022-08-04T10:29:48;98836.00;;;38.70
68012;BMP180;54794;48.348;7.878;2022-08-04T10:32:23;98819.00;;;38.80
68012;BMP180;54794;48.348;7.878;2022-08-04T10:35:15;98828.00;;;38.90
68012;BMP180;54794;48.348;7.878;2022-08-04T10:41:11;98837.00;;;39.10
68012;BMP180;54794;48.348;7.878;2022-08-04T10:43:49;98830.00;;;39.20
68012;BMP180;54794;48.348;7.878;2022-08-04T10:46:26;98820.00;;;39.30
68012;BMP180;54794;48.348;7.878;2022-08-04T10:49:03;98821.00;;;39.30
68012;BMP180;54794;48.348;7.878;2022-08-04T10:54:46;98821.00;;;39.60
68012;BMP180;54794;48.348;7.878;2022-08-04T10:57:51;98825.00;;;39.70
68012;BMP180;54794;48.348;7.878;2022-08-04T11:00:26;98820.00;;;39.80
68012;BMP180;54794;48.348;7.878;2022-08-04T11:05:54;98824.00;;;40.00
68012;BMP180;54794;48.348;7.878;2022-08-04T11:08:35;98820.00;;;40.10
68012;BMP180;54794;48.348;7.878;2022-08-04T11:11:15;98814.00;;;40.20
68012;BMP180;54794;48.348;7.878;2022-08-04T11:13:48;98811.00;;;40.30
68012;BMP180;54794;48.348;7.878;2022-08-04T11:16:32;98813.00;;;40.50
68012;BMP180;54794;48.348;7.878;2022-08-04T11:19:33;98816.00;;;40.60
68012;BMP180;54794;48.348;7.878;2022-08-04T11:22:23;98820.00;;;40.70
68012;BMP180;54794;48.348;7.878;2022-08-04T11:25:16;98815.00;;;40.90
68012;BMP180;54794;48.348;7.878;2022-08-04T11:28:49;98818.00;;;41.10
68012;BMP180;54794;48.348;7.878;2022-08-04T11:31:39;98822.00;;;41.20
68012;BMP180;54794;48.348;7.878;2022-08-04T11:34:26;98815.00;;;41.30
68012;BMP180;54794;48.348;7.878;2022-08-04T11:37:17;98813.00;;;41.40
68012;BMP180;54794;48.348;7.878;2022-08-04T11:40:27;98821.00;;;41.60
68012;BMP180;54794;48.348;7.878;2022-08-04T11:43:00;98819.00;;;41.70
68012;BMP180;54794;48.348;7.878;2022-08-04T11:45:37;98812.00;;;41.80
68012;BMP180;54794;48.348;7.878;2022-08-04T11:48:13;98818.00;;;41.90
68012;BMP180;54794;48.348;7.878;2022-08-04T11:50:49;98820.00;;;41.90
68012;BMP180;54794;48.348;7.878;2022-08-04T11:53:24;98821.00;;;42.00
68012;BMP180;54794;48.348;7.878;2022-08-04T11:56:06;98822.00;;;42.10
68012;BMP180;54794;48.348;7.878;2022-08-04T11:58:38;98819.00;;;42.10
68012;BMP180;54794;48.348;7.878;2022-08-04T12:01:22;98822.00;;;42.20
68012;BMP180;54794;48.348;7.878;2022-08-04T12:07:05;98821.00;;;42.40
68012;BMP180;54794;48.348;7.878;2022-08-04T12:13:40;98813.00;;;42.60
68012;BMP180;54794;48.348;7.878;2022-08-04T12:16:30;98816.00;;;42.60
68012;BMP180;54794;48.348;7.878;2022-08-04T12:19:16;98815.00;;;42.70
68012;BMP180;54794;48.348;7.878;2022-08-04T12:21:57;98810.00;;;42.80
68012;BMP180;54794;48.348;7.878;2022-08-04T12:25:08;98810.00;;;42.90
68012;BMP180;54794;48.348;7.878;2022-08-04T12:27:54;98812.00;;;43.00
68012;BMP180;54794;48.348;7.878;2022-08-04T12:30:23;98812.00;;;43.10
68012;BMP180;54794;48.348;7.878;2022-08-04T12:33:27;98806.00;;;43.20
68012;BMP180;54794;48.348;7.878;2022-08-04T12:39:19;98801.00;;;43.40
68012;BMP180;54794;48.348;7.878;2022-08-04T12:42:21;98807.00;;;43.50
68012;BMP180;54794;48.348;7.878;2022-08-04T12:44:50;98798.00;;;43.60
68012;BMP180;54794;48.348;7.878;2022-08-04T12:47:26;98800.00;;;43.70
68012;BMP180;54794;48.348;7.878;2022-08-04T12:50:00;98794.00;;;43.70
68012;BMP180;54794;48.348;7.878;2022-08-04T12:52:39;98793.00;;;43.80
68012;BMP180;54794;48.348;7.878;2022-08-04T12:55:29;98799.00;;;43.90
68012;BMP180;54794;48.348;7.878;2022-08-04T12:58:02;98802.00;;;43.90
68012;BMP180;54794;48.348;7.878;2022-08-04T13:00:34;98796.00;;;44.00
68012;BMP180;54794;48.348;7.878;2022-08-04T13:03:14;98796.00;;;44.00
68012;BMP180;54794;48.348;7.878;2022-08-04T13:05:44;98783.00;;;44.10
68012;BMP180;54794;48.348;7.878;2022-08-04T13:08:13;98795.00;;;44.10
68012;BMP180;54794;48.348;7.878;2022-08-04T13:10:46;98792.00;;;44.20
68012;BMP180;54794;48.348;7.878;2022-08-04T13:13:24;98782.00;;;44.20
68012;BMP180;54794;48.348;7.878;2022-08-04T13:16:03;98778.00;;;44.30
68012;BMP180;54794;48.348;7.878;2022-08-04T13:18:38;98783.00;;;44.30
68012;BMP180;54794;48.348;7.878;2022-08-04T13:24:02;98769.00;;;44.30
68012;BMP180;54794;48.348;7.878;2022-08-04T13:27:02;98772.00;;;44.30
68012;BMP180;54794;48.348;7.878;2022-08-04T13:29:40;98764.00;;;44.40
68012;BMP180;54794;48.348;7.878;2022-08-04T13:32:29;98766.00;;;44.40
68012;BMP180;54794;48.348;7.878;2022-08-04T13:35:00;98759.00;;;44.50
68012;BMP180;54794;48.348;7.878;2022-08-04T13:37:34;98757.00;;;44.50
68012;BMP180;54794;48.348;7.878;2022-08-04T13:40:05;98764.00;;;44.50
68012;BMP180;54794;48.348;7.878;2022-08-04T13:42:36;98754.00;;;44.60
68012;BMP180;54794;48.348;7.878;2022-08-04T13:45:07;98755.00;;;44.60
68012;BMP180;54794;48.348;7.878;2022-08-04T13:47:38;98751.00;;;44.60
68012;BMP180;54794;48.348;7.878;2022-08-04T13:50:24;98754.00;;;44.60
68012;BMP180;54794;48.348;7.878;2022-08-04T13:52:56;98749.00;;;44.70
68012;BMP180;54794;48.348;7.878;2022-08-04T13:55:33;98745.00;;;44.70
68012;BMP180;54794;48.348;7.878;2022-08-04T13:58:04;98749.00;;;44.70
68012;BMP180;54794;48.348;7.878;2022-08-04T14:00:48;98736.00;;;44.80
68012;BMP180;54794;48.348;7.878;2022-08-04T14:03:29;98736.00;;;44.90
68012;BMP180;54794;48.348;7.878;2022-08-04T14:06:28;98746.00;;;44.90
68012;BMP180;54794;48.348;7.878;2022-08-04T14:09:11;98740.00;;;45.00
68012;BMP180;54794;48.348;7.878;2022-08-04T14:11:54;98729.00;;;45.00
68012;BMP180;54794;48.348;7.878;2022-08-04T14:14:51;98721.00;;;45.10
68012;BMP180;54794;48.348;7.878;2022-08-04T14:17:24;98725.00;;;45.10
68012;BMP180;54794;48.348;7.878;2022-08-04T14:20:00;98723.00;;;45.20
68012;BMP180;54794;48.348;7.878;2022-08-04T14:25:10;98724.00;;;45.20
68012;BMP180;54794;48.348;7.878;2022-08-04T14:27:53;98726.00;;;45.20
68012;BMP180;54794;48.348;7.878;2022-08-04T14:33:08;98718.00;;;45.30
68012;BMP180;54794;48.348;7.878;2022-08-04T14:35:57;98720.00;;;45.30
68012;BMP180;54794;48.348;7.878;2022-08-04T14:38:55;98712.00;;;45.30
68012;BMP180;54794;48.348;7.878;2022-08-04T14:41:30;98720.00;;;45.30
68012;BMP180;54794;48.348;7.878;2022-08-04T14:44:09;98712.00;;;45.30
68012;BMP180;54794;48.348;7.878;2022-08-04T14:46:51;98709.00;;;45.30
68012;BMP180;54794;48.348;7.878;2022-08-04T14:49:19;98714.00;;;45.30
68012;BMP180;54794;48.348;7.878;2022-08-04T14:51:59;98714.00;;;45.30
68012;BMP180;54794;48.348;7.878;2022-08-04T14:54:34;98710.00;;;45.30
68012;BMP180;54794;48.348;7.878;2022-08-04T14:57:06;98709.00;;;45.30
68012;BMP180;54794;48.348;7.878;2022-08-04T14:59:46;98704.00;;;45.20
68012;BMP180;54794;48.348;7.878;2022-08-04T15:02:28;98702.00;;;45.20
68012;BMP180;54794;48.348;7.878;2022-08-04T15:04:56;98698.00;;;45.20
68012;BMP180;54794;48.348;7.878;2022-08-04T15:07:44;98705.00;;;45.20
68012;BMP180;54794;48.348;7.878;2022-08-04T15:10:12;98706.00;;;45.20
68012;BMP180;54794;48.348;7.878;2022-08-04T15:12:39;98703.00;;;45.20
68012;BMP180;54794;48.348;7.878;2022-08-04T15:15:06;98702.00;;;45.20
68012;BMP180;54794;48.348;7.878;2022-08-04T15:17:54;98705.00;;;45.10
68012;BMP180;54794;48.348;7.878;2022-08-04T15:20:21;98702.00;;;45.10
68012;BMP180;54794;48.348;7.878;2022-08-04T15:22:49;98706.00;;;45.20
68012;BMP180;54794;48.348;7.878;2022-08-04T15:25:16;98695.00;;;45.10
68012;BMP180;54794;48.348;7.878;2022-08-04T15:27:48;98696.00;;;45.10
68012;BMP180;54794;48.348;7.878;2022-08-04T15:30:17;98689.00;;;45.10
68012;BMP180;54794;48.348;7.878;2022-08-04T15:32:51;98681.00;;;45.10
68012;BMP180;54794;48.348;7.878;2022-08-04T15:35:23;98685.00;;;45.10
68012;BMP180;54794;48.348;7.878;2022-08-04T15:38:27;98672.00;;;45.10
68012;BMP180;54794;48.348;7.878;2022-08-04T15:41:08;98685.00;;;45.10
68012;BMP180;54794;48.348;7.878;2022-08-04T15:47:10;98686.00;;;45.00
68012;BMP180;54794;48.348;7.878;2022-08-04T15:49:38;98680.00;;;45.00
68012;BMP180;54794;48.348;7.878;2022-08-04T15:52:13;98672.00;;;45.00
68012;BMP180;54794;48.348;7.878;2022-08-04T15:54:45;98677.00;;;45.00
68012;BMP180;54794;48.348;7.878;2022-08-04T15:57:58;98668.00;;;44.90
68012;BMP180;54794;48.348;7.878;2022-08-04T16:00:26;98667.00;;;44.90
68012;BMP180;54794;48.348;7.878;2022-08-04T16:02:53;98668.00;;;44.90
68012;BMP180;54794;48.348;7.878;2022-08-04T16:08:10;98663.00;;;44.90
68012;BMP180;54794;48.348;7.878;2022-08-04T16:10:41;98656.00;;;44.90
68012;BMP180;54794;48.348;7.878;2022-08-04T16:13:15;98656.00;;;44.90
68012;BMP180;54794;48.348;7.878;2022-08-04T16:15:55;98656.00;;;44.80
68012;BMP180;54794;48.348;7.878;2022-08-04T16:21:04;98648.00;;;44.80
68012;BMP180;54794;48.348;7.878;2022-08-04T16:23:54;98647.00;;;44.70
68012;BMP180;54794;48.348;7.878;2022-08-04T16:29:32;98647.00;;;44.60
68012;BMP180;54794;48.348;7.878;2022-08-04T16:32:17;98646.00;;;44.60
68012;BMP180;54794;48.348;7.878;2022-08-04T16:35:04;98650.00;;;44.50
68012;BMP180;54794;48.348;7.878;2022-08-04T16:37:43;98652.00;;;44.40
68012;BMP180;54794;48.348;7.878;2022-08-04T16:43:15;98638.00;;;44.30
68012;BMP180;54794;48.348;7.878;2022-08-04T16:45:58;98640.00;;;44.10
68012;BMP180;54794;48.348;7.878;2022-08-04T16:48:32;98645.00;;;44.10
68012;BMP180;54794;48.348;7.878;2022-08-04T16:51:07;98646.00;;;44.10
68012;BMP180;54794;48.348;7.878;2022-08-04T16:53:43;98646.00;;;44.00
68012;BMP180;54794;48.348;7.878;2022-08-04T16:56:32;98639.00;;;43.90
68012;BMP180;54794;48.348;7.878;2022-08-04T16:59:07;98636.00;;;43.80
68012;BMP180;54794;48.348;7.878;2022-08-04T17:01:36;98633.00;;;43.70
68012;BMP180;54794;48.348;7.878;2022-08-04T17:04:04;98630.00;;;43.60
68012;BMP180;54794;48.348;7.878;2022-08-04T17:06:39;98630.00;;;43.50
68012;BMP180;54794;48.348;7.878;2022-08-04T17:09:13;98625.00;;;43.30
68012;BMP180;54794;48.348;7.878;2022-08-04T17:11:42;98623.00;;;43.20
68012;BMP180;54794;48.348;7.878;2022-08-04T17:14:10;98624.00;;;43.10
68012;BMP180;54794;48.348;7.878;2022-08-04T17:16:41;98620.00;;;43.00
68012;BMP180;54794;48.348;7.878;2022-08-04T17:19:09;98616.00;;;42.90
68012;BMP180;54794;48.348;7.878;2022-08-04T17:22:02;98621.00;;;42.70
68012;BMP180;54794;48.348;7.878;2022-08-04T17:24:35;98617.00;;;42.50
68012;BMP180;54794;48.348;7.878;2022-08-04T17:27:04;98623.00;;;42.40
68012;BMP180;54794;48.348;7.878;2022-08-04T17:29:51;98608.00;;;42.20
68012;BMP180;54794;48.348;7.878;2022-08-04T17:32:20;98616.00;;;42.00
68012;BMP180;54794;48.348;7.878;2022-08-04T17:34:51;98610.00;;;41.90
68012;BMP180;54794;48.348;7.878;2022-08-04T17:37:21;98608.00;;;41.70
68012;BMP180;54794;48.348;7.878;2022-08-04T17:40:14;98617.00;;;41.50
68012;BMP180;54794;48.348;7.878;2022-08-04T17:43:05;98607.00;;;41.40
68012;BMP180;54794;48.348;7.878;2022-08-04T17:46:27;98611.00;;;41.10
68012;BMP180;54794;48.348;7.878;2022-08-04T17:51:57;98611.00;;;40.80
68012;BMP180;54794;48.348;7.878;2022-08-04T17:54:38;98609.00;;;40.60
68012;BMP180;54794;48.348;7.878;2022-08-04T17:59:53;98613.00;;;40.30
68012;BMP180;54794;48.348;7.878;2022-08-04T18:02:29;98616.00;;;40.10
68012;BMP180;54794;48.348;7.878;2022-08-04T18:05:04;98614.00;;;40.00
68012;BMP180;54794;48.348;7.878;2022-08-04T18:07:40;98616.00;;;39.80
68012;BMP180;54794;48.348;7.878;2022-08-04T18:10:39;98614.00;;;39.60
68012;BMP180;54794;48.348;7.878;2022-08-04T18:13:23;98614.00;;;39.50
68012;BMP180;54794;48.348;7.878;2022-08-04T18:16:03;98616.00;;;39.30
68012;BMP180;54794;48.348;7.878;2022-08-04T18:18:30;98622.00;;;39.20
68012;BMP180;54794;48.348;7.878;2022-08-04T18:20:57;98618.00;;;39.00
68012;BMP180;54794;48.348;7.878;2022-08-04T18:23:31;98624.00;;;38.90
68012;BMP180;54794;48.348;7.878;2022-08-04T18:26:00;98618.00;;;38.80
68012;BMP180;54794;48.348;7.878;2022-08-04T18:28:28;98627.00;;;38.70
68012;BMP180;54794;48.348;7.878;2022-08-04T18:30:59;98627.00;;;38.50
68012;BMP180;54794;48.348;7.878;2022-08-04T18:33:26;98626.00;;;38.40
68012;BMP180;54794;48.348;7.878;2022-08-04T18:36:09;98613.00;;;38.30
68012;BMP180;54794;48.348;7.878;2022-08-04T18:38:58;98623.00;;;38.10
68012;BMP180;54794;48.348;7.878;2022-08-04T18:41:39;98625.00;;;38.00
68012;BMP180;54794;48.348;7.878;2022-08-04T18:44:26;98618.00;;;37.90